Time,TemperatureF,DewpointF,PressureIn,WindDirection,WindDirectionDegrees,WindSpeedMPH,WindSpeedGustMPH,Humidity,HourlyPrecipIn,Conditions,Clouds,dailyrainin,SolarRadiationWatts/m^2,SoftwareType,DateUTC
2013-09-16 00:01:00,83.6,76.8,29.88,East,90,18.4,18.4,80,0.00,RA,SKC,0.00,0.0,WeatherDisplay:10.37,2013-09-16 05:01:00,
2013-09-16 00:06:00,83.6,76.8,29.88,East,96,15.0,15.0,80,0.00,RA,SKC,0.00,0.0,WeatherDisplay:10.37,2013-09-16 05:06:00,
2013-09-16 00:11:00,83.6,77.9,29.88,ENE,71,18.4,18.4,83,0.00,CLR,SKC,0.00,0.0,WeatherDisplay:10.37,2013-09-16 05:11:00,
2013-09-16 00:16:00,83.0,77.7,29.88,East,85,18.4,18.4,84,0.00,CLR,SKC,0.00,0.0,WeatherDisplay:10.37,2013-09-16 05:16:00,
2013-09-16 00:21:00,82.8,77.1,29.88,East,86,17.3,17.3,83,0.00,CLR,SKC,0.00,0.0,WeatherDisplay:10.37,2013-09-16 05:21:00,
2013-09-16 00:26:00,82.9,76.8,29.88,East,89,17.3,17.3,82,0.00,CLR,SKC,0.01,0.0,WeatherDisplay:10.37,2013-09-16 05:26:00,
2013-09-16 00:31:00,83.0,77.3,29.88,ENE,69,18.4,18.4,83,0.01,RA,SKC,0.01,0.0,WeatherDisplay:10.37,2013-09-16 05:31:00,
2013-09-16 00:36:00,82.9,77.2,29.88,East,86,16.1,16.1,83,0.01,RA,SKC,0.01,0.0,WeatherDisplay:10.37,2013-09-16 05:36:00,
2013-09-16 00:41:00,82.5,77.5,29.88,East,85,15.0,15.0,85,0.01,CLR,SKC,0.01,0.0,WeatherDisplay:10.37,2013-09-16 05:41:00,
2013-09-16 00:46:00,82.1,77.5,29.88,ENE,70,13.8,13.8,86,0.01,CLR,SKC,0.01,0.0,WeatherDisplay:10.37,2013-09-16 05:46:00,
2013-09-16 00:51:00,82.0,77.0,29.88,ENE,66,13.8,13.8,85,0.01,CLR,SKC,0.01,0.0,WeatherDisplay:10.37,2013-09-16 05:51:00,
2013-09-16 00:56:00,82.0,77.0,29.88,ENE,67,15.0,15.0,85,0.01,CLR,SKC,0.01,0.0,WeatherDisplay:10.37,2013-09-16 05:56:00,
2013-09-16 01:01:00,82.1,77.5,29.88,ESE,104,13.8,13.8,86,0.01,CLR,SKC,0.01,0.0,WeatherDisplay:10.37,2013-09-16 06:01:00,
2013-09-16 01:06:00,82.1,77.1,29.88,East,84,13.8,13.8,85,0.01,CLR,SKC,0.01,0.0,WeatherDisplay:10.37,2013-09-16 06:06:00,
2013-09-16 01:11:00,82.2,77.2,29.87,ENE,71,15.0,15.0,85,0.01,CLR,SKC,0.01,0.0,WeatherDisplay:10.37,2013-09-16 06:11:00,
2013-09-16 01:16:00,82.3,77.3,29.87,East,90,15.0,15.0,85,0.01,CLR,SKC,0.01,0.0,WeatherDisplay:10.37,2013-09-16 06:16:00,
2013-09-16 01:21:00,82.4,77.8,29.87,ENE,69,17.3,17.3,86,0.01,CLR,SKC,0.01,0.0,WeatherDisplay:10.37,2013-09-16 06:21:00,
2013-09-16 01:26:00,81.7,76.4,29.88,East,95,25.3,25.3,84,0.01,CLR,SKC,0.03,0.0,WeatherDisplay:10.37,2013-09-16 06:26:00,
2013-09-16 01:31:00,79.3,75.1,29.88,ENE,59,16.1,16.1,87,0.06,RA,SKC,0.07,0.0,WeatherDisplay:10.37,2013-09-16 06:31:00,
2013-09-16 01:36:00,78.5,74.6,29.88,ENE,66,10.4,10.4,88,0.07,RA,SKC,0.09,0.0,WeatherDisplay:10.37,2013-09-16 06:36:00,
2013-09-16 01:41:00,78.6,75.1,29.88,ESE,115,10.4,10.4,89,0.07,RA,SKC,0.09,0.0,WeatherDisplay:10.37,2013-09-16 06:41:00,
2013-09-16 01:46:00,79.6,76.4,29.88,ENE,65,11.5,11.5,90,0.07,CLR,SKC,0.09,0.0,WeatherDisplay:10.37,2013-09-16 06:46:00,
2013-09-16 01:51:00,80.3,77.1,29.88,ENE,69,12.7,12.7,90,0.07,CLR,SKC,0.09,0.0,WeatherDisplay:10.37,2013-09-16 06:51:00,
2013-09-16 01:56:00,80.9,77.0,29.87,East,94,16.1,16.1,88,0.07,CLR,SKC,0.09,0.0,WeatherDisplay:10.37,2013-09-16 06:56:00,
2013-09-16 02:01:00,81.4,76.8,29.87,ESE,106,19.6,19.6,86,0.07,CLR,SKC,0.09,0.0,WeatherDisplay:10.37,2013-09-16 07:01:00,
2013-09-16 02:06:00,81.7,77.1,29.87,ESE,104,16.1,16.1,86,0.07,CLR,SKC,0.09,0.0,WeatherDisplay:10.37,2013-09-16 07:06:00,
2013-09-16 02:11:00,81.8,76.8,29.87,ESE,111,16.1,16.1,85,0.07,CLR,SKC,0.09,0.0,WeatherDisplay:10.37,2013-09-16 07:11:00,
2013-09-16 02:16:00,82.0,77.0,29.87,East,100,18.4,18.4,85,0.07,CLR,SKC,0.09,0.0,WeatherDisplay:10.37,2013-09-16 07:16:00,
2013-09-16 02:21:00,82.2,76.9,29.87,East,93,19.6,19.6,84,0.07,CLR,SKC,0.09,0.0,WeatherDisplay:10.37,2013-09-16 07:21:00,
2013-09-16 02:26:00,82.1,76.4,29.87,ENE,78,26.5,26.5,83,0.07,CLR,SKC,0.09,0.0,WeatherDisplay:10.37,2013-09-16 07:26:00,
2013-09-16 02:31:00,81.0,76.1,29.87,ENE,60,23.0,23.0,85,0.01,CLR,SKC,0.09,0.0,WeatherDisplay:10.37,2013-09-16 07:31:00,
2013-09-16 02:36:00,80.7,76.1,29.87,East,99,15.0,15.0,86,0.00,CLR,SKC,0.09,0.0,WeatherDisplay:10.37,2013-09-16 07:36:00,
2013-09-16 02:41:00,80.2,75.6,29.87,East,84,16.1,16.1,86,0.00,CLR,SKC,0.09,0.0,WeatherDisplay:10.37,2013-09-16 07:41:00,
2013-09-16 02:46:00,80.2,76.0,29.87,East,95,12.7,12.7,87,0.00,CLR,SKC,0.09,0.0,WeatherDisplay:10.37,2013-09-16 07:46:00,
2013-09-16 02:51:00,80.2,76.0,29.87,East,86,11.5,11.5,87,0.00,CLR,SKC,0.09,0.0,WeatherDisplay:10.37,2013-09-16 07:51:00,
2013-09-16 02:56:00,80.6,76.7,29.87,East,84,12.0,12.0,88,0.00,CLR,SKC,0.09,0.0,WeatherDisplay:10.37,2013-09-16 07:56:00,
2013-09-16 03:01:00,81.1,77.2,29.87,ESE,120,11.5,11.5,88,0.00,CLR,SKC,0.09,0.0,WeatherDisplay:10.37,2013-09-16 08:01:00,
2013-09-16 03:06:00,81.5,77.3,29.87,ENE,70,26.0,26.0,87,0.00,CLR,SKC,0.10,0.0,WeatherDisplay:10.37,2013-09-16 08:06:00,
2013-09-16 03:11:00,80.2,75.6,29.87,ESE,103,19.0,19.0,86,0.03,RA,SKC,0.11,0.0,WeatherDisplay:10.37,2013-09-16 08:11:00,
2013-09-16 03:16:00,80.1,76.2,29.87,East,88,18.4,18.4,88,0.03,RA,SKC,0.11,0.0,WeatherDisplay:10.37,2013-09-16 08:16:00,
2013-09-16 03:21:00,79.8,76.3,29.87,ENE,71,18.4,18.4,89,0.03,CLR,SKC,0.11,0.0,WeatherDisplay:10.37,2013-09-16 08:21:00,
2013-09-16 03:26:00,79.6,75.7,29.86,East,82,15.0,15.0,88,0.03,CLR,SKC,0.11,0.0,WeatherDisplay:10.37,2013-09-16 08:26:00,
2013-09-16 03:31:00,79.8,76.3,29.86,East,98,16.1,16.1,89,0.03,CLR,SKC,0.11,0.0,WeatherDisplay:10.37,2013-09-16 08:31:00,
2013-09-16 03:36:00,80.3,76.8,29.86,East,89,14.0,14.0,89,0.03,CLR,SKC,0.11,0.0,WeatherDisplay:10.37,2013-09-16 08:36:00,
2013-09-16 03:41:00,80.5,76.6,29.86,East,89,15.0,15.0,88,0.03,CLR,SKC,0.11,0.0,WeatherDisplay:10.37,2013-09-16 08:41:00,
2013-09-16 03:46:00,80.7,76.8,29.86,East,86,19.6,19.6,88,0.03,CLR,SKC,0.11,0.0,WeatherDisplay:10.37,2013-09-16 08:46:00,
2013-09-16 03:51:00,81.0,77.1,29.86,East,90,17.3,17.3,88,0.03,CLR,SKC,0.11,0.0,WeatherDisplay:10.37,2013-09-16 08:51:00,
2013-09-16 03:56:00,81.1,76.9,29.86,East,97,17.3,17.3,87,0.03,CLR,SKC,0.11,0.0,WeatherDisplay:10.37,2013-09-16 08:56:00,
2013-09-16 04:01:00,81.2,77.0,29.86,ESE,112,13.8,13.8,87,0.03,CLR,SKC,0.11,0.0,WeatherDisplay:10.37,2013-09-16 09:01:00,
2013-09-16 04:06:00,81.4,77.2,29.86,ENE,76,15.0,15.0,87,0.03,CLR,SKC,0.11,0.0,WeatherDisplay:10.37,2013-09-16 09:06:00,
2013-09-16 04:11:00,81.4,77.2,29.85,East,93,16.0,16.0,87,0.00,CLR,SKC,0.11,0.0,WeatherDisplay:10.37,2013-09-16 09:11:00,
2013-09-16 04:16:00,81.5,77.3,29.85,East,82,11.5,11.5,87,0.00,CLR,SKC,0.11,0.0,WeatherDisplay:10.37,2013-09-16 09:16:00,
2013-09-16 04:21:00,81.4,77.2,29.85,East,96,11.5,11.5,87,0.00,CLR,SKC,0.11,0.0,WeatherDisplay:10.37,2013-09-16 09:21:00,
2013-09-16 04:26:00,81.5,77.3,29.84,East,82,12.7,12.7,87,0.00,CLR,SKC,0.11,0.0,WeatherDisplay:10.37,2013-09-16 09:26:00,
2013-09-16 04:31:00,81.5,77.3,29.84,East,88,13.8,13.8,87,0.00,CLR,SKC,0.11,0.0,WeatherDisplay:10.37,2013-09-16 09:31:00,
2013-09-16 04:36:00,81.5,77.3,29.84,East,82,13.0,13.0,87,0.00,CLR,SKC,0.11,0.0,WeatherDisplay:10.37,2013-09-16 09:36:00,
2013-09-16 04:41:00,81.6,77.4,29.84,East,84,10.4,10.4,87,0.00,CLR,SKC,0.11,0.0,WeatherDisplay:10.37,2013-09-16 09:41:00,
2013-09-16 04:46:00,81.7,77.5,29.84,ENE,59,11.5,11.5,87,0.00,CLR,SKC,0.11,0.0,WeatherDisplay:10.37,2013-09-16 09:46:00,
2013-09-16 04:51:00,81.7,77.5,29.84,ENE,76,12.7,12.7,87,0.00,CLR,SKC,0.11,0.0,WeatherDisplay:10.37,2013-09-16 09:51:00,
2013-09-16 04:56:00,81.8,77.2,29.84,ENE,63,13.8,13.8,86,0.00,CLR,SKC,0.11,0.0,WeatherDisplay:10.37,2013-09-16 09:56:00,
2013-09-16 05:01:00,82.0,77.0,29.84,East,96,15.0,15.0,85,0.00,CLR,SKC,0.11,0.0,WeatherDisplay:10.37,2013-09-16 10:01:00,
2013-09-16 05:06:00,81.9,77.3,29.84,East,83,18.4,18.4,86,0.03,RA,SKC,0.14,0.0,WeatherDisplay:10.37,2013-09-16 10:06:00,
2013-09-16 05:11:00,80.9,77.0,29.84,East,85,16.1,16.1,88,0.03,RA,SKC,0.14,0.0,WeatherDisplay:10.37,2013-09-16 10:11:00,
2013-09-16 05:16:00,80.4,76.5,29.84,East,97,13.0,13.0,88,0.03,CLR,SKC,0.14,0.0,WeatherDisplay:10.37,2013-09-16 10:16:00,
2013-09-16 05:21:00,80.7,77.2,29.84,ESE,102,13.0,13.0,89,0.03,CLR,SKC,0.14,0.0,WeatherDisplay:10.37,2013-09-16 10:21:00,
2013-09-16 05:26:00,80.9,77.0,29.84,ESE,108,10.4,10.4,88,0.03,CLR,SKC,0.14,0.0,WeatherDisplay:10.37,2013-09-16 10:26:00,
2013-09-16 05:31:00,81.1,77.2,29.84,ESE,103,15.0,15.0,88,0.03,CLR,SKC,0.14,0.0,WeatherDisplay:10.37,2013-09-16 10:31:00,
2013-09-16 05:36:00,81.3,77.4,29.84,East,93,13.8,13.8,88,0.03,CLR,SKC,0.14,0.0,WeatherDisplay:10.37,2013-09-16 10:36:00,
2013-09-16 05:41:00,81.4,77.5,29.84,East,80,12.7,12.7,88,0.03,CLR,SKC,0.14,0.0,WeatherDisplay:10.37,2013-09-16 10:41:00,
2013-09-16 05:46:00,81.4,77.8,29.84,East,80,13.8,13.8,89,0.03,CLR,SKC,0.14,0.0,WeatherDisplay:10.37,2013-09-16 10:46:00,
2013-09-16 05:51:00,81.1,77.2,29.84,ESE,111,12.7,12.7,88,0.03,CLR,SKC,0.14,0.0,WeatherDisplay:10.37,2013-09-16 10:51:00,
2013-09-16 05:56:00,81.3,77.1,29.84,ESE,107,15.0,15.0,87,0.03,CLR,SKC,0.14,0.0,WeatherDisplay:10.37,2013-09-16 10:56:00,
2013-09-16 06:01:00,81.4,76.8,29.84,East,95,12.7,12.7,86,0.03,CLR,SKC,0.14,0.0,WeatherDisplay:10.37,2013-09-16 11:01:00,
2013-09-16 06:06:00,81.5,76.9,29.84,East,82,11.5,11.5,86,0.00,CLR,SKC,0.14,0.0,WeatherDisplay:10.37,2013-09-16 11:06:00,
2013-09-16 06:11:00,81.1,76.2,29.85,East,101,17.3,17.3,85,0.01,RA,SKC,0.16,0.0,WeatherDisplay:10.37,2013-09-16 11:11:00,
2013-09-16 06:16:00,80.3,75.7,29.85,East,88,10.4,10.4,86,0.01,RA,SKC,0.16,0.0,WeatherDisplay:10.37,2013-09-16 11:16:00,
2013-09-16 06:21:00,80.6,76.7,29.85,East,101,11.5,11.5,88,0.01,CLR,SKC,0.16,0.0,WeatherDisplay:10.37,2013-09-16 11:21:00,
2013-09-16 06:26:00,80.4,76.2,29.85,East,80,11.5,11.5,87,0.01,CLR,SKC,0.16,0.0,WeatherDisplay:10.37,2013-09-16 11:26:00,
2013-09-16 06:31:00,80.5,76.3,29.85,ESE,115,11.5,11.5,87,0.01,CLR,SKC,0.16,0.0,WeatherDisplay:10.37,2013-09-16 11:31:00,
2013-09-16 06:36:00,80.9,76.0,29.85,East,79,12.0,12.0,85,0.01,CLR,SKC,0.16,0.0,WeatherDisplay:10.37,2013-09-16 11:36:00,
2013-09-16 06:41:00,81.1,76.2,29.85,East,99,12.7,12.7,85,0.01,CLR,SKC,0.16,0.0,WeatherDisplay:10.37,2013-09-16 11:41:00,
2013-09-16 06:46:00,80.4,75.5,29.85,ENE,76,16.1,16.1,85,0.01,CLR,SKC,0.16,0.0,WeatherDisplay:10.37,2013-09-16 11:46:00,
2013-09-16 06:51:00,79.1,74.9,29.85,East,96,15.0,15.0,87,0.01,CLR,SKC,0.16,0.0,WeatherDisplay:10.37,2013-09-16 11:51:00,
2013-09-16 06:56:00,78.8,74.9,29.86,ESE,117,11.5,11.5,88,0.01,CLR,SKC,0.16,0.0,WeatherDisplay:10.37,2013-09-16 11:56:00,
2013-09-16 07:01:00,78.9,75.4,29.86,East,101,9.2,9.2,89,0.01,CLR,SKC,0.16,0.0,WeatherDisplay:10.37,2013-09-16 12:01:00,
2013-09-16 07:06:00,78.9,75.4,29.86,East,79,6.9,6.9,89,0.01,CLR,SKC,0.16,5.0,WeatherDisplay:10.37,2013-09-16 12:06:00,
2013-09-16 07:11:00,79.1,75.6,29.86,East,101,6.9,6.9,89,0.00,CLR,SKC,0.16,7.0,WeatherDisplay:10.37,2013-09-16 12:11:00,
2013-09-16 07:16:00,79.4,75.9,29.86,East,98,4.6,4.6,89,0.00,CLR,SKC,0.16,11.0,WeatherDisplay:10.37,2013-09-16 12:16:00,
2013-09-16 07:21:00,79.7,76.2,29.86,East,99,8.1,8.1,89,0.00,CLR,SKC,0.16,11.0,WeatherDisplay:10.37,2013-09-16 12:21:00,
2013-09-16 07:26:00,80.1,76.6,29.87,East,90,9.2,9.2,89,0.00,CLR,SKC,0.16,11.0,WeatherDisplay:10.37,2013-09-16 12:26:00,
2013-09-16 07:31:00,80.4,76.9,29.87,ESE,105,12.7,12.7,89,0.00,CLR,SKC,0.17,30.0,WeatherDisplay:10.37,2013-09-16 12:31:00,
2013-09-16 07:36:00,80.7,77.2,29.87,ESE,106,11.5,11.5,89,0.01,RA,SKC,0.17,56.0,WeatherDisplay:10.37,2013-09-16 12:36:00,
2013-09-16 07:41:00,79.9,76.0,29.88,ESE,113,6.9,6.9,88,0.01,RA,SKC,0.17,70.0,WeatherDisplay:10.37,2013-09-16 12:41:00,
2013-09-16 07:46:00,79.4,75.9,29.88,South,188,6.0,6.0,89,0.01,CLR,SKC,0.17,67.0,WeatherDisplay:10.37,2013-09-16 12:46:00,
2013-09-16 07:51:00,78.9,75.4,29.88,SSE,165,5.0,5.0,89,0.01,CLR,SKC,0.17,74.0,WeatherDisplay:10.37,2013-09-16 12:51:00,
2013-09-16 07:56:00,78.4,74.9,29.89,SSW,209,2.3,2.3,89,0.01,CLR,SKC,0.17,40.0,WeatherDisplay:10.37,2013-09-16 12:56:00,
2013-09-16 08:01:00,78.2,75.0,29.89,SE,138,3.5,3.5,90,0.01,CLR,SKC,0.17,21.0,WeatherDisplay:10.37,2013-09-16 13:01:00,
2013-09-16 08:06:00,78.1,74.9,29.89,ESE,103,10.4,10.4,90,0.01,CLR,SKC,0.17,26.0,WeatherDisplay:10.37,2013-09-16 13:06:00,
2013-09-16 08:11:00,78.3,75.1,29.90,SE,128,4.6,4.6,90,0.01,CLR,SKC,0.17,30.0,WeatherDisplay:10.37,2013-09-16 13:11:00,
2013-09-16 08:16:00,78.3,75.5,29.90,SSW,196,3.5,3.5,91,0.01,CLR,SKC,0.17,40.0,WeatherDisplay:10.37,2013-09-16 13:16:00,
2013-09-16 08:21:00,78.5,75.7,29.90,ESE,120,3.5,3.5,91,0.01,CLR,SKC,0.17,53.0,WeatherDisplay:10.37,2013-09-16 13:21:00,
2013-09-16 08:26:00,79.3,76.8,29.89,ESE,104,10.4,10.4,92,0.01,CLR,SKC,0.17,35.0,WeatherDisplay:10.37,2013-09-16 13:26:00,
2013-09-16 08:31:00,80.9,77.4,29.89,ESE,103,18.4,18.4,89,0.01,CLR,SKC,0.17,33.0,WeatherDisplay:10.37,2013-09-16 13:31:00,
2013-09-16 08:36:00,81.6,77.4,29.89,East,100,16.1,16.1,87,0.00,CLR,SKC,0.17,23.0,WeatherDisplay:10.37,2013-09-16 13:36:00,
2013-09-16 08:41:00,81.8,77.2,29.90,ESE,107,19.6,19.6,86,0.00,CLR,SKC,0.17,7.0,WeatherDisplay:10.37,2013-09-16 13:41:00,
2013-09-16 08:46:00,79.3,75.4,29.90,ESE,121,16.1,16.1,88,0.11,RA,SKC,0.30,11.0,WeatherDisplay:10.37,2013-09-16 13:46:00,
2013-09-16 08:51:00,77.8,74.3,29.90,ESE,112,5.8,5.8,89,0.43,RA,SKC,0.60,16.0,WeatherDisplay:10.37,2013-09-16 13:51:00,
2013-09-16 08:56:00,78.1,75.3,29.90,ESE,114,10.4,10.4,91,0.43,RA,SKC,0.60,19.0,WeatherDisplay:10.37,2013-09-16 13:56:00,
2013-09-16 09:01:00,78.9,75.7,29.90,East,100,13.8,13.8,90,0.43,CLR,SKC,0.60,28.0,WeatherDisplay:10.37,2013-09-16 14:01:00,
2013-09-16 09:06:00,78.9,75.7,29.90,East,84,10.4,10.4,90,0.43,CLR,SKC,0.60,37.0,WeatherDisplay:10.37,2013-09-16 14:06:00,
2013-09-16 09:11:00,80.0,77.1,29.90,ESE,102,19.6,19.6,91,0.43,CLR,SKC,0.60,49.0,WeatherDisplay:10.37,2013-09-16 14:11:00,
2013-09-16 09:16:00,81.1,77.2,29.90,East,91,19.6,19.6,88,0.43,CLR,SKC,0.60,26.0,WeatherDisplay:10.37,2013-09-16 14:16:00,
2013-09-16 09:21:00,81.4,77.2,29.90,East,89,15.0,15.0,87,0.43,CLR,SKC,0.60,44.0,WeatherDisplay:10.37,2013-09-16 14:21:00,
2013-09-16 09:26:00,81.5,77.3,29.90,East,93,15.0,15.0,87,0.43,CLR,SKC,0.60,81.0,WeatherDisplay:10.37,2013-09-16 14:26:00,
2013-09-16 09:31:00,81.5,76.6,29.90,ESE,117,17.3,17.3,85,0.43,CLR,SKC,0.60,72.0,WeatherDisplay:10.37,2013-09-16 14:31:00,
2013-09-16 09:36:00,80.6,76.0,29.90,SE,124,19.6,19.6,86,0.43,CLR,SKC,0.60,123.0,WeatherDisplay:10.37,2013-09-16 14:36:00,
2013-09-16 09:41:00,80.1,75.2,29.91,ESE,104,12.7,12.7,85,0.43,CLR,SKC,0.60,114.0,WeatherDisplay:10.37,2013-09-16 14:41:00,
2013-09-16 09:46:00,80.4,75.8,29.91,East,95,21.9,21.9,86,0.31,CLR,SKC,0.60,105.0,WeatherDisplay:10.37,2013-09-16 14:46:00,
2013-09-16 09:51:00,80.8,76.2,29.91,ESE,109,15.0,15.0,86,0.00,CLR,SKC,0.60,163.0,WeatherDisplay:10.37,2013-09-16 14:51:00,
2013-09-16 09:56:00,81.2,75.9,29.91,East,96,15.0,15.0,84,0.00,CLR,SKC,0.60,139.0,WeatherDisplay:10.37,2013-09-16 14:56:00,
2013-09-16 10:01:00,81.5,76.6,29.91,East,98,15.0,15.0,85,0.00,CLR,SKC,0.60,125.0,WeatherDisplay:10.37,2013-09-16 15:01:00,
2013-09-16 10:06:00,81.8,77.2,29.91,ENE,65,17.3,17.3,86,0.00,CLR,SKC,0.60,125.0,WeatherDisplay:10.37,2013-09-16 15:06:00,
2013-09-16 10:11:00,82.0,77.0,29.91,ESE,117,16.1,16.1,85,0.00,CLR,SKC,0.60,130.0,WeatherDisplay:10.37,2013-09-16 15:11:00,
2013-09-16 10:16:00,81.8,76.5,29.91,SE,133,21.9,21.9,84,0.00,CLR,SKC,0.60,21.0,WeatherDisplay:10.37,2013-09-16 15:16:00,
2013-09-16 10:21:00,80.8,76.2,29.91,SE,130,18.4,18.4,86,0.00,CLR,SKC,0.60,51.0,WeatherDisplay:10.37,2013-09-16 15:21:00,
2013-09-16 10:26:00,79.6,75.4,29.92,ESE,120,19.6,19.6,87,0.00,CLR,SKC,0.60,30.0,WeatherDisplay:10.37,2013-09-16 15:26:00,
2013-09-16 10:31:00,79.0,75.5,29.92,SSE,153,21.9,21.9,89,0.06,RA,SKC,0.69,33.0,WeatherDisplay:10.37,2013-09-16 15:31:00,
2013-09-16 10:36:00,78.2,75.0,29.92,SE,130,21.9,21.9,90,0.11,RA,SKC,0.71,19.0,WeatherDisplay:10.37,2013-09-16 15:36:00,
2013-09-16 10:41:00,77.5,74.7,29.92,SE,134,17.3,17.3,91,0.26,RA,SKC,0.89,25.0,WeatherDisplay:10.37,2013-09-16 15:41:00,
2013-09-16 10:46:00,76.9,74.4,29.92,ESE,111,19.6,19.6,92,0.46,RA,SKC,1.12,19.0,WeatherDisplay:10.37,2013-09-16 15:46:00,
2013-09-16 10:51:00,77.0,74.8,29.92,ENE,74,12.7,12.7,93,0.86,RA,SKC,1.52,18.0,WeatherDisplay:10.37,2013-09-16 15:51:00,
2013-09-16 10:56:00,76.9,75.0,29.93,East,79,16.1,16.1,94,1.14,RA,SKC,1.76,28.0,WeatherDisplay:10.37,2013-09-16 15:56:00,
2013-09-16 11:01:00,77.1,75.2,29.93,East,88,6.9,6.9,94,1.19,RA,SKC,1.79,49.0,WeatherDisplay:10.37,2013-09-16 16:01:00,
2013-09-16 11:06:00,77.4,75.5,29.93,ESE,115,10.4,10.4,94,1.19,RA,SKC,1.79,53.0,WeatherDisplay:10.37,2013-09-16 16:06:00,
2013-09-16 11:11:00,77.7,75.8,29.93,ESE,122,5.8,5.8,94,1.20,RA,SKC,1.83,60.0,WeatherDisplay:10.37,2013-09-16 16:11:00,
2013-09-16 11:16:00,78.2,76.6,29.93,East,96,9.2,9.2,95,1.24,RA,SKC,1.84,84.0,WeatherDisplay:10.37,2013-09-16 16:16:00,
2013-09-16 11:21:00,78.8,77.2,29.93,SE,138,13.0,13.0,95,1.24,RA,SKC,1.86,16.0,WeatherDisplay:10.37,2013-09-16 16:21:00,
2013-09-16 11:26:00,79.1,77.2,29.93,ESE,119,12.7,12.7,94,1.29,RA,SKC,1.89,40.0,WeatherDisplay:10.37,2013-09-16 16:26:00,
2013-09-16 11:31:00,79.5,77.3,29.93,East,90,19.6,19.6,93,1.23,RA,SKC,1.89,56.0,WeatherDisplay:10.37,2013-09-16 16:31:00,
2013-09-16 11:36:00,80.9,77.7,29.93,ESE,106,12.7,12.7,90,1.17,CLR,SKC,1.89,97.0,WeatherDisplay:10.37,2013-09-16 16:36:00,
2013-09-16 11:41:00,81.8,77.9,29.92,East,93,17.3,17.3,88,1.03,CLR,SKC,1.89,95.0,WeatherDisplay:10.37,2013-09-16 16:41:00,
2013-09-16 11:46:00,82.6,78.0,29.92,East,89,18.4,18.4,86,0.83,CLR,SKC,1.89,100.0,WeatherDisplay:10.37,2013-09-16 16:46:00,
2013-09-16 11:51:00,82.9,77.9,29.92,East,81,17.0,17.0,85,0.43,CLR,SKC,1.89,137.0,WeatherDisplay:10.37,2013-09-16 16:51:00,
2013-09-16 11:56:00,82.9,77.9,29.92,East,82,17.3,17.3,85,0.14,CLR,SKC,1.89,137.0,WeatherDisplay:10.37,2013-09-16 16:56:00,
2013-09-16 12:01:00,83.0,77.3,29.92,East,97,20.7,20.7,83,0.10,CLR,SKC,1.89,149.0,WeatherDisplay:10.37,2013-09-16 17:01:00,
2013-09-16 12:06:00,83.3,78.0,29.92,East,100,20.7,20.7,84,0.10,CLR,SKC,1.89,186.0,WeatherDisplay:10.37,2013-09-16 17:06:00,
2013-09-16 12:11:00,83.2,77.9,29.92,East,97,19.0,19.0,84,0.09,CLR,SKC,1.89,209.0,WeatherDisplay:10.37,2013-09-16 17:11:00,
2013-09-16 12:16:00,83.2,77.5,29.92,ENE,76,21.9,21.9,83,0.04,CLR,SKC,1.89,230.0,WeatherDisplay:10.37,2013-09-16 17:16:00,
2013-09-16 12:21:00,83.4,77.7,29.92,East,95,18.4,18.4,83,0.04,CLR,SKC,1.89,264.0,WeatherDisplay:10.37,2013-09-16 17:21:00,
2013-09-16 12:26:00,83.6,77.5,29.92,ESE,108,20.7,20.7,82,0.00,CLR,SKC,1.89,294.0,WeatherDisplay:10.37,2013-09-16 17:26:00,
2013-09-16 12:31:00,83.7,78.0,29.92,East,86,19.6,19.6,83,0.00,CLR,SKC,1.89,288.0,WeatherDisplay:10.37,2013-09-16 17:31:00,
2013-09-16 12:36:00,83.7,77.2,29.92,ESE,110,24.2,24.2,81,0.00,CLR,SKC,1.89,285.0,WeatherDisplay:10.37,2013-09-16 17:36:00,
2013-09-16 12:41:00,83.7,77.2,29.93,East,99,19.6,19.6,81,0.00,CLR,SKC,1.89,274.0,WeatherDisplay:10.37,2013-09-16 17:41:00,
2013-09-16 12:46:00,83.9,77.4,29.93,ESE,108,18.4,18.4,81,0.00,CLR,SKC,1.89,269.0,WeatherDisplay:10.37,2013-09-16 17:46:00,
2013-09-16 12:51:00,83.9,77.4,29.93,East,90,19.0,19.0,81,0.00,CLR,SKC,1.89,264.0,WeatherDisplay:10.37,2013-09-16 17:51:00,
2013-09-16 12:56:00,83.9,77.1,29.93,East,95,17.3,17.3,80,0.00,CLR,SKC,1.89,251.0,WeatherDisplay:10.37,2013-09-16 17:56:00,
2013-09-16 13:01:00,84.1,77.6,29.93,ESE,111,11.5,11.5,81,0.00,CLR,SKC,1.89,248.0,WeatherDisplay:10.37,2013-09-16 18:01:00,
2013-09-16 13:06:00,83.9,77.4,29.93,East,87,18.4,18.4,81,0.00,CLR,SKC,1.89,264.0,WeatherDisplay:10.37,2013-09-16 18:06:00,
2013-09-16 13:11:00,83.9,77.1,29.92,ENE,73,17.3,17.3,80,0.00,CLR,SKC,1.89,292.0,WeatherDisplay:10.37,2013-09-16 18:11:00,
2013-09-16 13:16:00,84.0,77.5,29.92,East,86,17.3,17.3,81,0.00,CLR,SKC,1.89,311.0,WeatherDisplay:10.37,2013-09-16 18:16:00,
2013-09-16 13:21:00,84.1,77.3,29.92,East,89,18.4,18.4,80,0.00,CLR,SKC,1.89,322.0,WeatherDisplay:10.37,2013-09-16 18:21:00,
2013-09-16 13:26:00,84.1,77.3,29.91,East,98,20.7,20.7,80,0.01,RA,SKC,1.90,353.0,WeatherDisplay:10.37,2013-09-16 18:26:00,
2013-09-16 13:31:00,84.3,77.8,29.91,ENE,76,16.1,16.1,81,0.01,RA,SKC,1.90,392.0,WeatherDisplay:10.37,2013-09-16 18:31:00,
2013-09-16 13:36:00,84.4,77.9,29.91,East,79,19.6,19.6,81,0.01,CLR,SKC,1.90,566.0,WeatherDisplay:10.37,2013-09-16 18:36:00,
2013-09-16 13:41:00,84.4,77.6,29.91,East,91,19.6,19.6,80,0.01,CLR,SKC,1.90,564.0,WeatherDisplay:10.37,2013-09-16 18:41:00,
2013-09-16 13:46:00,84.7,78.2,29.91,ENE,78,19.6,19.6,81,0.01,CLR,SKC,1.90,485.0,WeatherDisplay:10.37,2013-09-16 18:46:00,
2013-09-16 13:51:00,84.9,78.0,29.91,ENE,74,18.4,18.4,80,0.01,CLR,SKC,1.90,731.0,WeatherDisplay:10.37,2013-09-16 18:51:00,
2013-09-16 13:56:00,85.0,78.1,29.91,East,90,18.4,18.4,80,0.01,CLR,SKC,1.90,545.0,WeatherDisplay:10.37,2013-09-16 18:56:00,
2013-09-16 14:01:00,84.8,77.9,29.91,East,92,19.6,19.6,80,0.01,CLR,SKC,1.90,534.0,WeatherDisplay:10.37,2013-09-16 19:01:00,
2013-09-16 14:06:00,84.7,77.8,29.91,East,99,21.9,21.9,80,0.01,CLR,SKC,1.90,645.0,WeatherDisplay:10.37,2013-09-16 19:06:00,
2013-09-16 14:11:00,85.1,78.6,29.90,ENE,65,17.3,17.6,81,0.01,CLR,SKC,1.90,823.0,WeatherDisplay:10.37,2013-09-16 19:11:00,
2013-09-16 14:16:00,84.8,78.7,29.90,ENE,77,18.4,18.4,82,0.01,CLR,SKC,1.90,107.0,WeatherDisplay:10.37,2013-09-16 19:16:00,
2013-09-16 14:21:00,83.7,78.3,29.90,East,93,18.4,18.4,84,0.01,CLR,SKC,1.90,172.0,WeatherDisplay:10.37,2013-09-16 19:21:00,
2013-09-16 14:26:00,83.9,78.2,29.90,East,88,23.0,23.0,83,0.00,CLR,SKC,1.90,418.0,WeatherDisplay:10.37,2013-09-16 19:26:00,
2013-09-16 14:31:00,84.7,78.6,29.90,East,90,21.9,21.9,82,0.00,CLR,SKC,1.90,946.0,WeatherDisplay:10.37,2013-09-16 19:31:00,
2013-09-16 14:36:00,85.1,78.6,29.90,East,83,21.9,21.9,81,0.00,CLR,SKC,1.90,861.0,WeatherDisplay:10.37,2013-09-16 19:36:00,
2013-09-16 14:41:00,85.2,78.7,29.89,East,94,19.6,19.6,81,0.00,CLR,SKC,1.90,418.0,WeatherDisplay:10.37,2013-09-16 19:41:00,
2013-09-16 14:46:00,85.0,78.5,29.89,East,94,20.7,20.7,81,0.00,CLR,SKC,1.90,763.0,WeatherDisplay:10.37,2013-09-16 19:46:00,
2013-09-16 14:51:00,85.2,78.3,29.89,East,80,23.0,23.0,80,0.00,CLR,SKC,1.90,664.0,WeatherDisplay:10.37,2013-09-16 19:51:00,
2013-09-16 14:56:00,85.1,78.2,29.88,East,98,23.0,23.0,80,0.00,CLR,SKC,1.90,359.0,WeatherDisplay:10.37,2013-09-16 19:56:00,
2013-09-16 15:01:00,85.0,77.8,29.88,East,81,20.7,20.7,79,0.00,CLR,SKC,1.90,357.0,WeatherDisplay:10.37,2013-09-16 20:01:00,
2013-09-16 15:06:00,84.8,77.9,29.88,East,84,19.6,19.6,80,0.00,CLR,SKC,1.90,332.0,WeatherDisplay:10.37,2013-09-16 20:06:00,
2013-09-16 15:11:00,84.7,78.2,29.88,ESE,103,19.6,19.6,81,0.00,CLR,SKC,1.90,272.0,WeatherDisplay:10.37,2013-09-16 20:11:00,
2013-09-16 15:16:00,84.5,78.0,29.88,East,82,19.6,19.6,81,0.00,CLR,SKC,1.90,218.0,WeatherDisplay:10.37,2013-09-16 20:16:00,
2013-09-16 15:21:00,84.5,78.0,29.88,ESE,111,15.0,15.0,81,0.00,CLR,SKC,1.90,192.0,WeatherDisplay:10.37,2013-09-16 20:21:00,
2013-09-16 15:26:00,84.3,77.5,29.88,East,95,21.9,21.9,80,0.00,CLR,SKC,1.90,130.0,WeatherDisplay:10.37,2013-09-16 20:26:00,
2013-09-16 15:31:00,84.3,77.5,29.88,ESE,108,20.7,20.7,80,0.00,CLR,SKC,1.90,144.0,WeatherDisplay:10.37,2013-09-16 20:31:00,
2013-09-16 15:36:00,84.2,77.4,29.88,East,90,20.7,20.7,80,0.00,CLR,SKC,1.90,127.0,WeatherDisplay:10.37,2013-09-16 20:36:00,
2013-09-16 15:41:00,84.1,77.6,29.87,ESE,103,19.6,19.6,81,0.00,CLR,SKC,1.90,156.0,WeatherDisplay:10.37,2013-09-16 20:41:00,
2013-09-16 15:46:00,84.1,77.6,29.87,East,88,17.3,17.3,81,0.00,CLR,SKC,1.90,162.0,WeatherDisplay:10.37,2013-09-16 20:46:00,
2013-09-16 15:51:00,84.1,77.6,29.87,East,86,19.6,19.6,81,0.00,CLR,SKC,1.90,185.0,WeatherDisplay:10.37,2013-09-16 20:51:00,
2013-09-16 15:56:00,84.1,77.6,29.87,East,99,18.4,18.4,81,0.00,CLR,SKC,1.90,197.0,WeatherDisplay:10.37,2013-09-16 20:56:00,
2013-09-16 16:01:00,84.2,77.4,29.87,East,84,20.7,20.7,80,0.00,CLR,SKC,1.90,200.0,WeatherDisplay:10.37,2013-09-16 21:01:00,
2013-09-16 16:06:00,84.2,77.4,29.87,East,82,19.6,19.6,80,0.00,CLR,SKC,1.90,204.0,WeatherDisplay:10.37,2013-09-16 21:06:00,
2013-09-16 16:11:00,84.2,77.7,29.87,ENE,78,24.2,24.2,81,0.00,CLR,SKC,1.90,197.0,WeatherDisplay:10.37,2013-09-16 21:11:00,
2013-09-16 16:16:00,84.2,77.7,29.87,East,94,19.6,19.6,81,0.00,CLR,SKC,1.90,192.0,WeatherDisplay:10.37,2013-09-16 21:16:00,
2013-09-16 16:21:00,84.2,77.7,29.87,East,87,19.6,19.6,81,0.00,CLR,SKC,1.90,162.0,WeatherDisplay:10.37,2013-09-16 21:21:00,
2013-09-16 16:26:00,84.2,77.7,29.87,East,97,18.4,18.4,81,0.00,CLR,SKC,1.90,183.0,WeatherDisplay:10.37,2013-09-16 21:26:00,
2013-09-16 16:31:00,84.2,77.4,29.87,ESE,105,19.6,19.6,80,0.00,CLR,SKC,1.90,188.0,WeatherDisplay:10.37,2013-09-16 21:31:00,
2013-09-16 16:36:00,84.3,77.8,29.87,East,94,20.7,20.7,81,0.00,CLR,SKC,1.90,199.0,WeatherDisplay:10.37,2013-09-16 21:36:00,
2013-09-16 16:41:00,84.2,78.5,29.88,East,96,18.4,18.4,83,0.00,CLR,SKC,1.90,188.0,WeatherDisplay:10.37,2013-09-16 21:41:00,
2013-09-16 16:46:00,84.0,78.6,29.88,ENE,76,18.4,18.4,84,0.00,CLR,SKC,1.90,120.0,WeatherDisplay:10.37,2013-09-16 21:46:00,
2013-09-16 16:51:00,83.8,78.1,29.88,ENE,69,19.6,19.6,83,0.00,CLR,SKC,1.90,91.0,WeatherDisplay:10.37,2013-09-16 21:51:00,
2013-09-16 16:56:00,83.2,77.9,29.87,East,98,19.6,19.6,84,0.00,CLR,SKC,1.90,137.0,WeatherDisplay:10.37,2013-09-16 21:56:00,
2013-09-16 17:01:00,82.9,77.9,29.87,ESE,102,25.3,25.3,85,0.00,CLR,SKC,1.90,148.0,WeatherDisplay:10.37,2013-09-16 22:01:00,
2013-09-16 17:06:00,83.1,78.1,29.87,East,94,23.0,23.0,85,0.00,CLR,SKC,1.90,54.0,WeatherDisplay:10.37,2013-09-16 22:06:00,
2013-09-16 17:11:00,81.4,76.8,29.88,ENE,74,18.4,18.4,86,0.01,RA,SKC,1.92,54.0,WeatherDisplay:10.37,2013-09-16 22:11:00,
2013-09-16 17:17:00,80.6,76.4,29.88,ENE,66,16.1,16.1,87,0.01,RA,SKC,1.92,104.0,WeatherDisplay:10.37,2013-09-16 22:17:00,
2013-09-16 17:22:00,80.6,76.7,29.88,East,92,14.0,14.0,88,0.01,CLR,SKC,1.92,123.0,WeatherDisplay:10.37,2013-09-16 22:22:00,
2013-09-16 17:27:00,80.8,76.6,29.88,ESE,104,13.8,13.8,87,0.01,CLR,SKC,1.92,144.0,WeatherDisplay:10.37,2013-09-16 22:27:00,
2013-09-16 17:32:00,81.1,76.5,29.88,East,84,15.0,15.0,86,0.01,CLR,SKC,1.92,162.0,WeatherDisplay:10.37,2013-09-16 22:32:00,
2013-09-16 17:37:00,81.6,76.6,29.88,ESE,102,19.6,19.6,85,0.01,CLR,SKC,1.92,169.0,WeatherDisplay:10.37,2013-09-16 22:37:00,
2013-09-16 17:42:00,82.0,77.0,29.87,East,94,19.6,19.6,85,0.01,CLR,SKC,1.92,163.0,WeatherDisplay:10.37,2013-09-16 22:42:00,
2013-09-16 17:47:00,82.2,77.6,29.87,ENE,74,17.3,17.3,86,0.01,CLR,SKC,1.92,155.0,WeatherDisplay:10.37,2013-09-16 22:47:00,
2013-09-16 17:52:00,82.2,77.2,29.87,East,88,16.1,16.1,85,0.01,CLR,SKC,1.92,144.0,WeatherDisplay:10.37,2013-09-16 22:52:00,
2013-09-16 17:57:00,82.3,77.7,29.87,East,80,13.8,13.8,86,0.01,CLR,SKC,1.92,134.0,WeatherDisplay:10.37,2013-09-16 22:57:00,
2013-09-16 18:02:00,82.4,77.4,29.87,ESE,107,17.3,17.3,85,0.01,CLR,SKC,1.92,123.0,WeatherDisplay:10.37,2013-09-16 23:02:00,
2013-09-16 18:07:00,82.6,77.6,29.87,East,98,15.0,15.0,85,0.01,CLR,SKC,1.92,109.0,WeatherDisplay:10.37,2013-09-16 23:07:00,
2013-09-16 18:12:00,82.7,77.7,29.87,ENE,74,15.0,15.0,85,0.00,CLR,SKC,1.92,104.0,WeatherDisplay:10.37,2013-09-16 23:12:00,
2013-09-16 18:17:00,82.6,78.0,29.87,East,79,16.1,16.1,86,0.00,CLR,SKC,1.92,102.0,WeatherDisplay:10.37,2013-09-16 23:17:00,
2013-09-16 18:22:00,82.6,78.0,29.87,East,90,13.8,13.8,86,0.00,CLR,SKC,1.92,98.0,WeatherDisplay:10.37,2013-09-16 23:22:00,
2013-09-16 18:27:00,82.9,77.9,29.87,East,92,19.6,19.6,85,0.00,CLR,SKC,1.92,83.0,WeatherDisplay:10.37,2013-09-16 23:27:00,
2013-09-16 18:32:00,83.1,78.1,29.87,ENE,73,19.6,19.6,85,0.00,CLR,SKC,1.92,65.0,WeatherDisplay:10.37,2013-09-16 23:32:00,
2013-09-16 18:37:00,83.1,77.8,29.87,East,83,17.3,17.3,84,0.00,CLR,SKC,1.92,47.0,WeatherDisplay:10.37,2013-09-16 23:37:00,
2013-09-16 18:42:00,82.6,77.3,29.87,ENE,76,18.4,18.4,84,0.00,CLR,SKC,1.92,56.0,WeatherDisplay:10.37,2013-09-16 23:42:00,
2013-09-16 18:47:00,82.6,77.6,29.87,East,84,15.0,15.0,85,0.00,CLR,SKC,1.92,47.0,WeatherDisplay:10.37,2013-09-16 23:47:00,
2013-09-16 18:52:00,82.6,77.3,29.87,ENE,61,17.3,17.3,84,0.00,CLR,SKC,1.92,37.0,WeatherDisplay:10.37,2013-09-16 23:52:00,
2013-09-16 18:57:00,82.7,77.4,29.87,East,79,13.8,13.8,84,0.00,CLR,SKC,1.92,30.0,WeatherDisplay:10.37,2013-09-16 23:57:00,
2013-09-16 19:02:00,82.4,77.1,29.87,East,98,13.8,13.8,84,0.00,CLR,SKC,1.92,23.0,WeatherDisplay:10.37,2013-09-17 00:02:00,
2013-09-16 19:07:00,82.5,77.2,29.87,ENE,65,15.0,15.0,84,0.00,CLR,SKC,1.92,18.0,WeatherDisplay:10.37,2013-09-17 00:07:00,
2013-09-16 19:12:00,82.5,77.2,29.88,East,90,16.1,16.1,84,0.00,CLR,SKC,1.92,12.0,WeatherDisplay:10.37,2013-09-17 00:12:00,
2013-09-16 19:17:00,82.7,77.7,29.88,ENE,67,15.0,15.0,85,0.00,CLR,SKC,1.92,7.0,WeatherDisplay:10.37,2013-09-17 00:17:00,
2013-09-16 19:22:00,82.5,77.5,29.88,ENE,76,16.1,16.1,85,0.00,CLR,SKC,1.92,5.0,WeatherDisplay:10.37,2013-09-17 00:22:00,
2013-09-16 19:27:00,82.7,77.7,29.88,East,84,16.1,16.1,85,0.00,CLR,SKC,1.92,0.0,WeatherDisplay:10.37,2013-09-17 00:27:00,
2013-09-16 19:32:00,82.9,78.3,29.88,East,90,15.0,15.0,86,0.00,CLR,SKC,1.92,0.0,WeatherDisplay:10.37,2013-09-17 00:32:00,
2013-09-16 19:37:00,82.8,78.2,29.88,East,89,15.0,15.0,86,0.00,CLR,SKC,1.92,0.0,WeatherDisplay:10.37,2013-09-17 00:37:00,
2013-09-16 19:42:00,82.9,78.3,29.88,East,86,13.8,13.8,86,0.00,CLR,SKC,1.92,0.0,WeatherDisplay:10.37,2013-09-17 00:42:00,
2013-09-16 19:47:00,82.9,78.3,29.88,East,84,13.8,13.8,86,0.00,CLR,SKC,1.92,0.0,WeatherDisplay:10.37,2013-09-17 00:47:00,
2013-09-16 19:52:00,82.8,78.2,29.88,East,83,17.3,17.3,86,0.00,CLR,SKC,1.92,0.0,WeatherDisplay:10.37,2013-09-17 00:52:00,
2013-09-16 19:57:00,82.9,78.3,29.88,ESE,116,15.0,15.0,86,0.00,CLR,SKC,1.92,0.0,WeatherDisplay:10.37,2013-09-17 00:57:00,
2013-09-16 20:02:00,82.9,78.3,29.88,ESE,110,16.1,16.1,86,0.00,CLR,SKC,1.92,0.0,WeatherDisplay:10.37,2013-09-17 01:02:00,
2013-09-16 20:07:00,83.0,78.4,29.88,ENE,71,15.0,15.0,86,0.00,CLR,SKC,1.92,0.0,WeatherDisplay:10.37,2013-09-17 01:07:00,
2013-09-16 20:12:00,83.1,78.8,29.88,East,97,13.8,13.8,87,0.00,CLR,SKC,1.92,0.0,WeatherDisplay:10.37,2013-09-17 01:12:00,
2013-09-16 20:17:00,82.8,78.5,29.88,ENE,75,13.8,13.8,87,0.00,CLR,SKC,1.92,0.0,WeatherDisplay:10.37,2013-09-17 01:17:00,
2013-09-16 20:22:00,82.7,77.4,29.88,East,98,18.4,18.4,84,0.00,CLR,SKC,1.92,0.0,WeatherDisplay:10.37,2013-09-17 01:22:00,
2013-09-16 20:27:00,82.8,76.7,29.89,East,90,19.6,19.6,82,0.00,CLR,SKC,1.92,0.0,WeatherDisplay:10.37,2013-09-17 01:27:00,
2013-09-16 20:32:00,82.9,76.8,29.89,East,86,13.8,13.8,82,0.00,CLR,SKC,1.92,0.0,WeatherDisplay:10.37,2013-09-17 01:32:00,
2013-09-16 20:37:00,82.9,77.2,29.89,East,96,16.1,16.1,83,0.00,CLR,SKC,1.92,0.0,WeatherDisplay:10.37,2013-09-17 01:37:00,
2013-09-16 20:42:00,82.9,76.8,29.90,East,95,18.4,18.4,82,0.00,CLR,SKC,1.92,0.0,WeatherDisplay:10.37,2013-09-17 01:42:00,
2013-09-16 20:47:00,83.0,76.9,29.90,East,92,18.4,18.4,82,0.00,CLR,SKC,1.92,0.0,WeatherDisplay:10.37,2013-09-17 01:47:00,
2013-09-16 20:52:00,83.0,76.9,29.90,East,82,17.3,17.3,82,0.00,CLR,SKC,1.92,0.0,WeatherDisplay:10.37,2013-09-17 01:52:00,
2013-09-16 20:57:00,83.0,76.9,29.90,East,95,17.3,17.3,82,0.00,CLR,SKC,1.92,0.0,WeatherDisplay:10.37,2013-09-17 01:57:00,
2013-09-16 21:02:00,83.0,77.3,29.90,East,92,13.0,13.0,83,0.00,CLR,SKC,1.92,0.0,WeatherDisplay:10.37,2013-09-17 02:02:00,
2013-09-16 21:07:00,83.0,77.3,29.90,East,101,15.0,15.0,83,0.00,CLR,SKC,1.92,0.0,WeatherDisplay:10.37,2013-09-17 02:07:00,
2013-09-16 21:12:00,83.0,77.7,29.91,East,95,11.5,11.5,84,0.00,CLR,SKC,1.92,0.0,WeatherDisplay:10.37,2013-09-17 02:12:00,
2013-09-16 21:17:00,83.1,77.8,29.91,East,97,21.9,21.9,84,0.00,CLR,SKC,1.92,0.0,WeatherDisplay:10.37,2013-09-17 02:17:00,
2013-09-16 21:22:00,83.2,77.9,29.91,East,91,12.7,12.7,84,0.00,CLR,SKC,1.92,0.0,WeatherDisplay:10.37,2013-09-17 02:22:00,
2013-09-16 21:27:00,83.2,78.2,29.91,ENE,78,11.5,11.5,85,0.00,CLR,SKC,1.92,0.0,WeatherDisplay:10.37,2013-09-17 02:27:00,
2013-09-16 21:32:00,83.1,78.1,29.91,East,84,17.3,17.3,85,0.00,CLR,SKC,1.92,0.0,WeatherDisplay:10.37,2013-09-17 02:32:00,
2013-09-16 21:37:00,83.0,77.7,29.91,East,89,17.3,17.3,84,0.00,CLR,SKC,1.92,0.0,WeatherDisplay:10.37,2013-09-17 02:37:00,
2013-09-16 21:42:00,83.0,77.3,29.91,East,86,18.4,18.4,83,0.00,CLR,SKC,1.92,0.0,WeatherDisplay:10.37,2013-09-17 02:42:00,
2013-09-16 21:47:00,83.1,77.4,29.91,East,89,15.0,15.0,83,0.00,CLR,SKC,1.92,0.0,WeatherDisplay:10.37,2013-09-17 02:47:00,
2013-09-16 21:52:00,83.2,77.1,29.91,East,86,19.6,19.6,82,0.00,CLR,SKC,1.92,0.0,WeatherDisplay:10.37,2013-09-17 02:52:00,
2013-09-16 21:57:00,83.4,77.7,29.91,East,99,15.0,15.0,83,0.00,CLR,SKC,1.92,0.0,WeatherDisplay:10.37,2013-09-17 02:57:00,
2013-09-16 22:02:00,83.2,77.5,29.91,ENE,77,16.1,16.1,83,0.00,CLR,SKC,1.92,0.0,WeatherDisplay:10.37,2013-09-17 03:02:00,
2013-09-16 22:07:00,83.1,77.8,29.91,East,101,18.4,18.4,84,0.00,CLR,SKC,1.92,0.0,WeatherDisplay:10.37,2013-09-17 03:07:00,
2013-09-16 22:12:00,83.2,77.1,29.92,East,94,17.3,17.3,82,0.00,CLR,SKC,1.92,0.0,WeatherDisplay:10.37,2013-09-17 03:12:00,
2013-09-16 22:17:00,83.3,77.2,29.92,ESE,103,16.1,16.1,82,0.00,CLR,SKC,1.92,0.0,WeatherDisplay:10.37,2013-09-17 03:17:00,
2013-09-16 22:22:00,83.2,77.1,29.92,ESE,105,18.4,18.4,82,0.00,CLR,SKC,1.92,0.0,WeatherDisplay:10.37,2013-09-17 03:22:00,
2013-09-16 22:27:00,83.2,77.5,29.92,East,88,18.4,18.4,83,0.00,CLR,SKC,1.92,0.0,WeatherDisplay:10.37,2013-09-17 03:27:00,
2013-09-16 22:32:00,83.2,77.5,29.92,East,101,17.3,17.3,83,0.00,CLR,SKC,1.92,0.0,WeatherDisplay:10.37,2013-09-17 03:32:00,
2013-09-16 22:37:00,83.2,77.5,29.92,East,92,16.1,16.1,83,0.00,CLR,SKC,1.92,0.0,WeatherDisplay:10.37,2013-09-17 03:37:00,
2013-09-16 22:42:00,83.1,77.4,29.92,East,90,18.4,18.4,83,0.00,CLR,SKC,1.92,0.0,WeatherDisplay:10.37,2013-09-17 03:42:00,
2013-09-16 22:47:00,83.1,77.4,29.92,East,98,16.0,16.0,83,0.00,CLR,SKC,1.92,0.0,WeatherDisplay:10.37,2013-09-17 03:47:00,
2013-09-16 22:52:00,83.2,77.5,29.92,East,92,13.8,13.8,83,0.00,CLR,SKC,1.92,0.0,WeatherDisplay:10.37,2013-09-17 03:52:00,
2013-09-16 22:57:00,83.1,77.0,29.92,East,97,22.0,22.0,82,0.00,CLR,SKC,1.92,0.0,WeatherDisplay:10.37,2013-09-17 03:57:00,
2013-09-16 23:01:00,83.2,77.1,29.92,East,90,18.4,18.4,82,0.00,BKN,SKC,1.92,0.0,WeatherDisplay:10.37,2013-09-17 04:01:00,
2013-09-16 23:02:00,83.2,77.1,29.92,ESE,111,14.0,14.0,82,0.00,CLR,SKC,1.92,0.0,WeatherDisplay:10.37,2013-09-17 04:02:00,
2013-09-16 23:07:00,83.2,77.5,29.92,East,88,19.6,19.6,83,0.00,CLR,SKC,1.92,0.0,WeatherDisplay:10.37,2013-09-17 04:07:00,
2013-09-16 23:12:00,83.2,77.9,29.92,ENE,57,15.0,15.0,84,0.00,CLR,SKC,1.92,0.0,WeatherDisplay:10.37,2013-09-17 04:12:00,
2013-09-16 23:17:00,83.0,77.7,29.92,East,95,13.8,13.8,84,0.00,CLR,SKC,1.92,0.0,WeatherDisplay:10.37,2013-09-17 04:17:00,
2013-09-16 23:22:00,82.9,77.6,29.92,ESE,115,16.0,16.0,84,0.00,CLR,SKC,1.92,0.0,WeatherDisplay:10.37,2013-09-17 04:22:00,
2013-09-16 23:27:00,82.8,77.5,29.93,East,83,15.0,15.0,84,0.00,CLR,SKC,1.92,0.0,WeatherDisplay:10.37,2013-09-17 04:27:00,
2013-09-16 23:32:00,82.9,77.9,29.93,ESE,111,15.0,15.0,85,0.00,CLR,SKC,1.92,0.0,WeatherDisplay:10.37,2013-09-17 04:32:00,
2013-09-16 23:37:00,82.8,77.8,29.93,East,79,12.7,12.7,85,0.00,CLR,SKC,1.92,0.0,WeatherDisplay:10.37,2013-09-17 04:37:00,
2013-09-16 23:42:00,82.7,77.7,29.93,East,94,11.5,11.5,85,0.00,CLR,SKC,1.92,0.0,WeatherDisplay:10.37,2013-09-17 04:42:00,
2013-09-16 23:47:00,82.6,77.6,29.93,ESE,103,13.8,13.8,85,0.00,CLR,SKC,1.92,0.0,WeatherDisplay:10.37,2013-09-17 04:47:00,
2013-09-16 23:52:00,82.6,77.6,29.93,ESE,103,12.7,12.7,85,0.00,CLR,SKC,1.92,0.0,WeatherDisplay:10.37,2013-09-17 04:52:00,
2013-09-16 23:57:00,82.6,77.6,29.93,East,95,15.0,15.0,85,0.00,CLR,SKC,1.92,0.0,WeatherDisplay:10.37,2013-09-17 04:57:00,